sensor_id;sensor_type;location;lat;lon;timestamp;P1;durP1;ratioP1;P2;durP2;ratioP2
60060;SDS011;45933;51.336;12.612;2023-05-07T00:01:37;8.53;;;7.20;;
60060;SDS011;45933;51.336;12.612;2023-05-07T00:04:02;8.57;;;7.13;;
60060;SDS011;45933;51.336;12.612;2023-05-07T00:06:28;7.83;;;6.87;;
60060;SDS011;45933;51.336;12.612;2023-05-07T00:08:54;8.37;;;7.57;;
60060;SDS011;45933;51.336;12.612;2023-05-07T00:11:21;7.83;;;7.03;;
60060;SDS011;45933;51.336;12.612;2023-05-07T00:13:47;7.93;;;7.13;;
60060;SDS011;45933;51.336;12.612;2023-05-07T00:16:12;8.50;;;6.87;;
60060;SDS011;45933;51.336;12.612;2023-05-07T00:18:37;9.87;;;7.73;;
60060;SDS011;45933;51.336;12.612;2023-05-07T00:21:03;8.57;;;7.63;;
60060;SDS011;45933;51.336;12.612;2023-05-07T00:23:28;8.00;;;7.03;;
60060;SDS011;45933;51.336;12.612;2023-05-07T00:25:53;10.90;;;7.93;;
60060;SDS011;45933;51.336;12.612;2023-05-07T00:28:19;9.80;;;8.23;;
60060;SDS011;45933;51.336;12.612;2023-05-07T00:30:44;8.67;;;7.77;;
60060;SDS011;45933;51.336;12.612;2023-05-07T00:33:09;9.67;;;7.90;;
60060;SDS011;45933;51.336;12.612;2023-05-07T00:35:34;9.17;;;8.17;;
60060;SDS011;45933;51.336;12.612;2023-05-07T00:38:00;10.40;;;8.10;;
60060;SDS011;45933;51.336;12.612;2023-05-07T00:40:25;11.23;;;8.63;;
60060;SDS011;45933;51.336;12.612;2023-05-07T00:42:50;15.03;;;9.87;;
60060;SDS011;45933;51.336;12.612;2023-05-07T00:45:22;16.27;;;9.47;;
60060;SDS011;45933;51.336;12.612;2023-05-07T00:47:51;11.10;;;9.67;;
60060;SDS011;45933;51.336;12.612;2023-05-07T00:50:18;11.27;;;9.37;;
60060;SDS011;45933;51.336;12.612;2023-05-07T00:52:44;10.40;;;8.43;;
60060;SDS011;45933;51.336;12.612;2023-05-07T00:55:09;10.73;;;8.70;;
60060;SDS011;45933;51.336;12.612;2023-05-07T00:57:37;11.60;;;9.20;;
60060;SDS011;45933;51.336;12.612;2023-05-07T01:00:05;11.80;;;9.77;;
60060;SDS011;45933;51.336;12.612;2023-05-07T01:02:33;11.13;;;9.37;;
60060;SDS011;45933;51.336;12.612;2023-05-07T01:04:59;12.50;;;10.17;;
60060;SDS011;45933;51.336;12.612;2023-05-07T01:07:25;12.83;;;9.60;;
60060;SDS011;45933;51.336;12.612;2023-05-07T01:09:52;11.63;;;9.97;;
60060;SDS011;45933;51.336;12.612;2023-05-07T01:12:17;12.00;;;9.50;;
60060;SDS011;45933;51.336;12.612;2023-05-07T01:14:43;13.20;;;9.93;;
60060;SDS011;45933;51.336;12.612;2023-05-07T01:17:08;12.57;;;10.07;;
60060;SDS011;45933;51.336;12.612;2023-05-07T01:19:34;14.83;;;11.00;;
60060;SDS011;45933;51.336;12.612;2023-05-07T01:22:03;14.83;;;10.63;;
60060;SDS011;45933;51.336;12.612;2023-05-07T01:24:33;14.10;;;11.03;;
60060;SDS011;45933;51.336;12.612;2023-05-07T01:27:01;15.33;;;11.50;;
60060;SDS011;45933;51.336;12.612;2023-05-07T01:29:26;15.93;;;11.97;;
60060;SDS011;45933;51.336;12.612;2023-05-07T01:31:52;14.67;;;11.53;;
60060;SDS011;45933;51.336;12.612;2023-05-07T01:34:17;14.20;;;11.67;;
60060;SDS011;45933;51.336;12.612;2023-05-07T01:36:46;16.37;;;12.60;;
60060;SDS011;45933;51.336;12.612;2023-05-07T01:39:12;17.83;;;13.70;;
60060;SDS011;45933;51.336;12.612;2023-05-07T01:41:38;16.80;;;13.47;;
60060;SDS011;45933;51.336;12.612;2023-05-07T01:44:04;18.03;;;13.10;;
60060;SDS011;45933;51.336;12.612;2023-05-07T01:46:31;17.20;;;13.53;;
60060;SDS011;45933;51.336;12.612;2023-05-07T01:48:57;16.33;;;12.67;;
60060;SDS011;45933;51.336;12.612;2023-05-07T01:51:23;17.17;;;13.37;;
60060;SDS011;45933;51.336;12.612;2023-05-07T01:53:49;15.50;;;13.63;;
60060;SDS011;45933;51.336;12.612;2023-05-07T01:56:16;16.47;;;13.77;;
60060;SDS011;45933;51.336;12.612;2023-05-07T01:58:42;15.70;;;13.67;;
60060;SDS011;45933;51.336;12.612;2023-05-07T02:01:09;17.30;;;14.27;;
60060;SDS011;45933;51.336;12.612;2023-05-07T02:03:34;16.47;;;14.03;;
60060;SDS011;45933;51.336;12.612;2023-05-07T02:05:59;16.50;;;13.53;;
60060;SDS011;45933;51.336;12.612;2023-05-07T02:08:24;19.17;;;14.57;;
60060;SDS011;45933;51.336;12.612;2023-05-07T02:10:50;16.30;;;13.57;;
60060;SDS011;45933;51.336;12.612;2023-05-07T02:13:16;16.93;;;13.43;;
60060;SDS011;45933;51.336;12.612;2023-05-07T02:15:41;16.67;;;13.77;;
60060;SDS011;45933;51.336;12.612;2023-05-07T02:18:09;16.97;;;13.90;;
60060;SDS011;45933;51.336;12.612;2023-05-07T02:20:35;15.90;;;13.50;;
60060;SDS011;45933;51.336;12.612;2023-05-07T02:23:00;18.27;;;14.60;;
60060;SDS011;45933;51.336;12.612;2023-05-07T02:25:25;17.03;;;14.43;;
60060;SDS011;45933;51.336;12.612;2023-05-07T02:27:51;17.23;;;14.30;;
60060;SDS011;45933;51.336;12.612;2023-05-07T02:30:16;15.53;;;13.67;;
60060;SDS011;45933;51.336;12.612;2023-05-07T02:32:41;15.93;;;13.33;;
60060;SDS011;45933;51.336;12.612;2023-05-07T02:35:07;18.43;;;13.80;;
60060;SDS011;45933;51.336;12.612;2023-05-07T02:37:32;14.13;;;12.40;;
60060;SDS011;45933;51.336;12.612;2023-05-07T02:39:58;17.37;;;12.83;;
60060;SDS011;45933;51.336;12.612;2023-05-07T02:42:23;13.97;;;11.80;;
60060;SDS011;45933;51.336;12.612;2023-05-07T02:44:48;16.43;;;12.77;;
60060;SDS011;45933;51.336;12.612;2023-05-07T02:47:14;12.83;;;11.53;;
60060;SDS011;45933;51.336;12.612;2023-05-07T02:49:40;12.77;;;11.43;;
60060;SDS011;45933;51.336;12.612;2023-05-07T02:52:05;13.27;;;11.40;;
60060;SDS011;45933;51.336;12.612;2023-05-07T02:54:31;14.27;;;10.97;;
60060;SDS011;45933;51.336;12.612;2023-05-07T02:56:56;14.77;;;11.40;;
60060;SDS011;45933;51.336;12.612;2023-05-07T02:59:22;13.37;;;11.80;;
60060;SDS011;45933;51.336;12.612;2023-05-07T03:01:48;13.27;;;11.50;;
60060;SDS011;45933;51.336;12.612;2023-05-07T03:04:13;13.73;;;11.50;;
60060;SDS011;45933;51.336;12.612;2023-05-07T03:06:38;16.00;;;12.27;;
60060;SDS011;45933;51.336;12.612;2023-05-07T03:09:04;13.87;;;11.60;;
60060;SDS011;45933;51.336;12.612;2023-05-07T03:11:29;12.37;;;11.07;;
60060;SDS011;45933;51.336;12.612;2023-05-07T03:13:55;12.80;;;11.40;;
60060;SDS011;45933;51.336;12.612;2023-05-07T03:16:20;13.70;;;11.13;;
60060;SDS011;45933;51.336;12.612;2023-05-07T03:18:46;15.03;;;11.70;;
60060;SDS011;45933;51.336;12.612;2023-05-07T03:21:12;13.53;;;11.40;;
60060;SDS011;45933;51.336;12.612;2023-05-07T03:23:37;16.63;;;12.33;;
60060;SDS011;45933;51.336;12.612;2023-05-07T03:26:02;12.90;;;11.13;;
60060;SDS011;45933;51.336;12.612;2023-05-07T03:28:28;14.00;;;12.10;;
60060;SDS011;45933;51.336;12.612;2023-05-07T03:30:53;13.97;;;11.37;;
60060;SDS011;45933;51.336;12.612;2023-05-07T03:33:18;14.57;;;11.80;;
60060;SDS011;45933;51.336;12.612;2023-05-07T03:35:43;15.50;;;12.40;;
60060;SDS011;45933;51.336;12.612;2023-05-07T03:38:09;13.57;;;11.93;;
60060;SDS011;45933;51.336;12.612;2023-05-07T03:40:34;14.60;;;11.67;;
60060;SDS011;45933;51.336;12.612;2023-05-07T03:43:00;15.43;;;11.53;;
60060;SDS011;45933;51.336;12.612;2023-05-07T03:45:25;14.23;;;11.63;;
60060;SDS011;45933;51.336;12.612;2023-05-07T03:47:51;13.57;;;11.13;;
60060;SDS011;45933;51.336;12.612;2023-05-07T03:50:16;13.07;;;11.23;;
60060;SDS011;45933;51.336;12.612;2023-05-07T03:52:41;13.00;;;11.10;;
60060;SDS011;45933;51.336;12.612;2023-05-07T03:55:07;14.20;;;10.93;;
60060;SDS011;45933;51.336;12.612;2023-05-07T03:57:32;14.13;;;11.63;;
60060;SDS011;45933;51.336;12.612;2023-05-07T03:59:58;13.27;;;11.00;;
60060;SDS011;45933;51.336;12.612;2023-05-07T04:02:23;13.27;;;11.30;;
60060;SDS011;45933;51.336;12.612;2023-05-07T04:04:48;13.13;;;10.97;;
60060;SDS011;45933;51.336;12.612;2023-05-07T04:07:14;15.37;;;12.37;;
60060;SDS011;45933;51.336;12.612;2023-05-07T04:09:39;15.23;;;11.43;;
60060;SDS011;45933;51.336;12.612;2023-05-07T04:12:05;12.57;;;10.87;;
60060;SDS011;45933;51.336;12.612;2023-05-07T04:14:30;14.80;;;11.50;;
60060;SDS011;45933;51.336;12.612;2023-05-07T04:16:57;13.73;;;10.67;;
60060;SDS011;45933;51.336;12.612;2023-05-07T04:19:26;15.63;;;11.47;;
60060;SDS011;45933;51.336;12.612;2023-05-07T04:21:51;13.27;;;10.73;;
60060;SDS011;45933;51.336;12.612;2023-05-07T04:24:16;14.33;;;11.23;;
60060;SDS011;45933;51.336;12.612;2023-05-07T04:26:42;12.97;;;10.67;;
60060;SDS011;45933;51.336;12.612;2023-05-07T04:29:07;14.43;;;10.33;;
60060;SDS011;45933;51.336;12.612;2023-05-07T04:31:32;12.20;;;10.43;;
60060;SDS011;45933;51.336;12.612;2023-05-07T04:33:58;12.50;;;10.00;;
60060;SDS011;45933;51.336;12.612;2023-05-07T04:36:23;14.80;;;9.23;;
60060;SDS011;45933;51.336;12.612;2023-05-07T04:38:52;10.63;;;8.43;;
60060;SDS011;45933;51.336;12.612;2023-05-07T04:41:17;8.93;;;7.60;;
60060;SDS011;45933;51.336;12.612;2023-05-07T04:43:43;10.27;;;8.03;;
60060;SDS011;45933;51.336;12.612;2023-05-07T04:46:08;9.77;;;7.43;;
60060;SDS011;45933;51.336;12.612;2023-05-07T04:48:33;9.53;;;7.00;;
60060;SDS011;45933;51.336;12.612;2023-05-07T04:50:58;8.77;;;6.70;;
60060;SDS011;45933;51.336;12.612;2023-05-07T04:53:24;9.20;;;7.53;;
60060;SDS011;45933;51.336;12.612;2023-05-07T04:55:54;8.60;;;7.23;;
60060;SDS011;45933;51.336;12.612;2023-05-07T04:58:21;11.60;;;7.40;;
60060;SDS011;45933;51.336;12.612;2023-05-07T05:00:46;10.17;;;7.70;;
60060;SDS011;45933;51.336;12.612;2023-05-07T05:03:12;8.43;;;7.40;;
60060;SDS011;45933;51.336;12.612;2023-05-07T05:05:37;9.83;;;7.57;;
60060;SDS011;45933;51.336;12.612;2023-05-07T05:08:03;10.93;;;8.07;;
60060;SDS011;45933;51.336;12.612;2023-05-07T05:10:28;10.10;;;7.57;;
60060;SDS011;45933;51.336;12.612;2023-05-07T05:12:53;10.23;;;7.43;;
60060;SDS011;45933;51.336;12.612;2023-05-07T05:15:18;10.93;;;7.83;;
60060;SDS011;45933;51.336;12.612;2023-05-07T05:17:44;13.13;;;8.30;;
60060;SDS011;45933;51.336;12.612;2023-05-07T05:20:09;10.13;;;8.40;;
60060;SDS011;45933;51.336;12.612;2023-05-07T05:22:36;9.60;;;7.90;;
60060;SDS011;45933;51.336;12.612;2023-05-07T05:25:02;11.70;;;8.77;;
60060;SDS011;45933;51.336;12.612;2023-05-07T05:27:27;10.47;;;8.83;;
60060;SDS011;45933;51.336;12.612;2023-05-07T05:29:53;11.83;;;8.37;;
60060;SDS011;45933;51.336;12.612;2023-05-07T05:32:19;10.00;;;8.53;;
60060;SDS011;45933;51.336;12.612;2023-05-07T05:34:44;10.53;;;8.93;;
60060;SDS011;45933;51.336;12.612;2023-05-07T05:37:09;11.70;;;9.17;;
60060;SDS011;45933;51.336;12.612;2023-05-07T05:39:35;10.57;;;9.27;;
60060;SDS011;45933;51.336;12.612;2023-05-07T05:42:01;10.30;;;8.53;;
60060;SDS011;45933;51.336;12.612;2023-05-07T05:44:26;11.57;;;9.00;;
60060;SDS011;45933;51.336;12.612;2023-05-07T05:46:51;12.10;;;10.07;;
60060;SDS011;45933;51.336;12.612;2023-05-07T05:49:16;11.63;;;9.30;;
60060;SDS011;45933;51.336;12.612;2023-05-07T05:51:42;10.80;;;9.00;;
60060;SDS011;45933;51.336;12.612;2023-05-07T05:54:08;11.57;;;9.67;;
60060;SDS011;45933;51.336;12.612;2023-05-07T05:56:33;11.53;;;9.77;;
60060;SDS011;45933;51.336;12.612;2023-05-07T05:59:04;14.03;;;10.87;;
60060;SDS011;45933;51.336;12.612;2023-05-07T06:01:33;13.77;;;10.80;;
60060;SDS011;45933;51.336;12.612;2023-05-07T06:03:58;11.70;;;9.53;;
60060;SDS011;45933;51.336;12.612;2023-05-07T06:06:23;13.33;;;10.40;;
60060;SDS011;45933;51.336;12.612;2023-05-07T06:08:49;11.90;;;9.67;;
60060;SDS011;45933;51.336;12.612;2023-05-07T06:11:14;11.60;;;9.60;;
60060;SDS011;45933;51.336;12.612;2023-05-07T06:13:39;14.03;;;9.73;;
60060;SDS011;45933;51.336;12.612;2023-05-07T06:16:05;10.07;;;8.03;;
60060;SDS011;45933;51.336;12.612;2023-05-07T06:18:30;11.77;;;9.10;;
60060;SDS011;45933;51.336;12.612;2023-05-07T06:20:55;12.07;;;9.47;;
60060;SDS011;45933;51.336;12.612;2023-05-07T06:23:21;11.50;;;8.80;;
60060;SDS011;45933;51.336;12.612;2023-05-07T06:25:50;11.10;;;8.57;;
60060;SDS011;45933;51.336;12.612;2023-05-07T06:28:15;11.73;;;8.80;;
60060;SDS011;45933;51.336;12.612;2023-05-07T06:30:41;10.27;;;8.87;;
60060;SDS011;45933;51.336;12.612;2023-05-07T06:33:06;10.73;;;8.40;;
60060;SDS011;45933;51.336;12.612;2023-05-07T06:35:32;10.67;;;8.20;;
60060;SDS011;45933;51.336;12.612;2023-05-07T06:37:57;10.03;;;8.67;;
60060;SDS011;45933;51.336;12.612;2023-05-07T06:40:22;10.23;;;8.20;;
60060;SDS011;45933;51.336;12.612;2023-05-07T06:42:48;8.97;;;7.57;;
60060;SDS011;45933;51.336;12.612;2023-05-07T06:45:13;8.93;;;7.77;;
60060;SDS011;45933;51.336;12.612;2023-05-07T06:47:38;8.27;;;7.37;;
60060;SDS011;45933;51.336;12.612;2023-05-07T06:50:04;8.90;;;7.50;;
60060;SDS011;45933;51.336;12.612;2023-05-07T06:52:29;8.77;;;7.87;;
60060;SDS011;45933;51.336;12.612;2023-05-07T06:54:55;7.70;;;6.68;;
60060;SDS011;45933;51.336;12.612;2023-05-07T06:57:20;7.97;;;7.17;;
60060;SDS011;45933;51.336;12.612;2023-05-07T06:59:45;7.93;;;7.13;;
60060;SDS011;45933;51.336;12.612;2023-05-07T07:02:10;8.27;;;7.13;;
60060;SDS011;45933;51.336;12.612;2023-05-07T07:04:36;7.80;;;6.70;;
60060;SDS011;45933;51.336;12.612;2023-05-07T07:07:01;8.23;;;6.97;;
60060;SDS011;45933;51.336;12.612;2023-05-07T07:09:26;9.03;;;5.53;;
60060;SDS011;45933;51.336;12.612;2023-05-07T07:11:51;7.50;;;6.53;;
60060;SDS011;45933;51.336;12.612;2023-05-07T07:14:17;7.20;;;6.50;;
60060;SDS011;45933;51.336;12.612;2023-05-07T07:16:42;7.20;;;6.10;;
60060;SDS011;45933;51.336;12.612;2023-05-07T07:19:07;8.03;;;6.10;;
60060;SDS011;45933;51.336;12.612;2023-05-07T07:21:33;6.53;;;5.70;;
60060;SDS011;45933;51.336;12.612;2023-05-07T07:23:58;6.77;;;5.93;;
60060;SDS011;45933;51.336;12.612;2023-05-07T07:26:23;6.82;;;5.82;;
60060;SDS011;45933;51.336;12.612;2023-05-07T07:28:48;6.80;;;5.40;;
60060;SDS011;45933;51.336;12.612;2023-05-07T07:31:14;6.97;;;5.70;;
60060;SDS011;45933;51.336;12.612;2023-05-07T07:33:40;5.43;;;4.90;;
60060;SDS011;45933;51.336;12.612;2023-05-07T07:36:06;6.30;;;5.40;;
60060;SDS011;45933;51.336;12.612;2023-05-07T07:38:32;7.22;;;5.88;;
60060;SDS011;45933;51.336;12.612;2023-05-07T07:40:57;7.13;;;5.00;;
60060;SDS011;45933;51.336;12.612;2023-05-07T07:43:22;6.50;;;4.80;;
60060;SDS011;45933;51.336;12.612;2023-05-07T07:45:48;5.63;;;5.10;;
60060;SDS011;45933;51.336;12.612;2023-05-07T07:48:13;5.38;;;4.88;;
60060;SDS011;45933;51.336;12.612;2023-05-07T07:50:38;5.33;;;4.83;;
60060;SDS011;45933;51.336;12.612;2023-05-07T07:53:04;4.43;;;4.03;;
60060;SDS011;45933;51.336;12.612;2023-05-07T07:55:29;10.87;;;8.33;;
60060;SDS011;45933;51.336;12.612;2023-05-07T07:57:56;7.60;;;6.80;;
60060;SDS011;45933;51.336;12.612;2023-05-07T08:00:21;8.25;;;7.32;;
60060;SDS011;45933;51.336;12.612;2023-05-07T08:02:46;6.70;;;6.05;;
60060;SDS011;45933;51.336;12.612;2023-05-07T08:05:12;6.63;;;5.50;;
60060;SDS011;45933;51.336;12.612;2023-05-07T08:07:37;5.57;;;5.07;;
60060;SDS011;45933;51.336;12.612;2023-05-07T08:10:02;6.22;;;5.63;;
60060;SDS011;45933;51.336;12.612;2023-05-07T08:12:28;6.35;;;5.68;;
60060;SDS011;45933;51.336;12.612;2023-05-07T08:14:53;5.33;;;4.80;;
60060;SDS011;45933;51.336;12.612;2023-05-07T08:17:19;6.00;;;5.20;;
60060;SDS011;45933;51.336;12.612;2023-05-07T08:19:47;6.00;;;5.27;;
60060;SDS011;45933;51.336;12.612;2023-05-07T08:22:12;5.87;;;5.33;;
60060;SDS011;45933;51.336;12.612;2023-05-07T08:24:37;6.63;;;5.30;;
60060;SDS011;45933;51.336;12.612;2023-05-07T08:27:03;5.67;;;4.83;;
60060;SDS011;45933;51.336;12.612;2023-05-07T08:29:28;6.33;;;5.50;;
60060;SDS011;45933;51.336;12.612;2023-05-07T08:31:53;7.23;;;5.93;;
60060;SDS011;45933;51.336;12.612;2023-05-07T08:34:19;5.13;;;4.63;;
60060;SDS011;45933;51.336;12.612;2023-05-07T08:36:44;6.07;;;5.47;;
60060;SDS011;45933;51.336;12.612;2023-05-07T08:39:11;6.73;;;5.60;;
60060;SDS011;45933;51.336;12.612;2023-05-07T08:41:37;5.30;;;4.80;;
60060;SDS011;45933;51.336;12.612;2023-05-07T08:44:03;5.53;;;5.03;;
60060;SDS011;45933;51.336;12.612;2023-05-07T08:46:31;7.13;;;5.60;;
60060;SDS011;45933;51.336;12.612;2023-05-07T08:48:57;6.13;;;5.50;;
60060;SDS011;45933;51.336;12.612;2023-05-07T08:51:23;6.28;;;5.65;;
60060;SDS011;45933;51.336;12.612;2023-05-07T08:53:48;5.93;;;5.27;;
60060;SDS011;45933;51.336;12.612;2023-05-07T08:56:15;5.60;;;5.10;;
60060;SDS011;45933;51.336;12.612;2023-05-07T08:58:41;6.27;;;5.57;;
60060;SDS011;45933;51.336;12.612;2023-05-07T09:01:09;5.95;;;5.25;;
60060;SDS011;45933;51.336;12.612;2023-05-07T09:03:40;5.30;;;4.80;;
60060;SDS011;45933;51.336;12.612;2023-05-07T09:06:08;5.03;;;4.50;;
60060;SDS011;45933;51.336;12.612;2023-05-07T09:08:35;6.47;;;5.10;;
60060;SDS011;45933;51.336;12.612;2023-05-07T09:11:01;5.87;;;4.67;;
60060;SDS011;45933;51.336;12.612;2023-05-07T09:13:26;5.83;;;4.97;;
60060;SDS011;45933;51.336;12.612;2023-05-07T09:15:52;5.77;;;5.17;;
60060;SDS011;45933;51.336;12.612;2023-05-07T09:18:18;5.40;;;4.90;;
60060;SDS011;45933;51.336;12.612;2023-05-07T09:20:43;6.43;;;5.30;;
60060;SDS011;45933;51.336;12.612;2023-05-07T09:23:08;6.33;;;5.73;;
60060;SDS011;45933;51.336;12.612;2023-05-07T09:25:34;5.87;;;5.27;;
60060;SDS011;45933;51.336;12.612;2023-05-07T09:28:01;6.32;;;4.82;;
60060;SDS011;45933;51.336;12.612;2023-05-07T09:30:28;5.82;;;4.82;;
60060;SDS011;45933;51.336;12.612;2023-05-07T09:32:55;5.65;;;5.10;;
60060;SDS011;45933;51.336;12.612;2023-05-07T09:35:20;5.10;;;4.60;;
60060;SDS011;45933;51.336;12.612;2023-05-07T09:37:55;5.27;;;4.70;;
60060;SDS011;45933;51.336;12.612;2023-05-07T09:40:25;5.53;;;4.90;;
60060;SDS011;45933;51.336;12.612;2023-05-07T09:42:52;5.23;;;4.70;;
60060;SDS011;45933;51.336;12.612;2023-05-07T09:45:36;5.55;;;4.50;;
60060;SDS011;45933;51.336;12.612;2023-05-07T09:48:01;5.30;;;4.80;;
60060;SDS011;45933;51.336;12.612;2023-05-07T09:50:32;5.72;;;4.88;;
60060;SDS011;45933;51.336;12.612;2023-05-07T09:53:01;5.18;;;4.45;;
60060;SDS011;45933;51.336;12.612;2023-05-07T09:55:28;5.03;;;4.53;;
60060;SDS011;45933;51.336;12.612;2023-05-07T09:57:55;5.90;;;5.07;;
60060;SDS011;45933;51.336;12.612;2023-05-07T10:00:22;5.53;;;4.85;;
60060;SDS011;45933;51.336;12.612;2023-05-07T10:02:48;4.57;;;4.15;;
60060;SDS011;45933;51.336;12.612;2023-05-07T10:05:17;7.38;;;4.78;;
60060;SDS011;45933;51.336;12.612;2023-05-07T10:07:43;5.32;;;4.47;;
60060;SDS011;45933;51.336;12.612;2023-05-07T10:10:09;5.35;;;4.40;;
60060;SDS011;45933;51.336;12.612;2023-05-07T10:12:35;4.80;;;4.30;;
60060;SDS011;45933;51.336;12.612;2023-05-07T10:15:10;4.50;;;4.05;;
60060;SDS011;45933;51.336;12.612;2023-05-07T10:17:37;4.55;;;4.15;;
60060;SDS011;45933;51.336;12.612;2023-05-07T10:20:04;5.18;;;4.68;;
60060;SDS011;45933;51.336;12.612;2023-05-07T10:22:32;5.05;;;4.55;;
60060;SDS011;45933;51.336;12.612;2023-05-07T10:25:03;5.85;;;5.25;;
60060;SDS011;45933;51.336;12.612;2023-05-07T10:27:43;9.10;;;6.38;;
60060;SDS011;45933;51.336;12.612;2023-05-07T10:30:32;9.07;;;7.38;;
60060;SDS011;45933;51.336;12.612;2023-05-07T10:33:01;7.57;;;6.78;;
60060;SDS011;45933;51.336;12.612;2023-05-07T10:35:31;7.13;;;6.43;;
60060;SDS011;45933;51.336;12.612;2023-05-07T10:38:04;6.93;;;6.22;;
60060;SDS011;45933;51.336;12.612;2023-05-07T10:40:30;7.20;;;6.50;;
60060;SDS011;45933;51.336;12.612;2023-05-07T10:42:58;8.63;;;6.35;;
60060;SDS011;45933;51.336;12.612;2023-05-07T10:45:30;7.93;;;6.70;;
60060;SDS011;45933;51.336;12.612;2023-05-07T10:48:05;7.15;;;6.45;;
60060;SDS011;45933;51.336;12.612;2023-05-07T10:50:41;7.13;;;6.40;;
60060;SDS011;45933;51.336;12.612;2023-05-07T10:55:44;10.68;;;9.10;;
60060;SDS011;45933;51.336;12.612;2023-05-07T11:00:45;10.27;;;8.98;;
60060;SDS011;45933;51.336;12.612;2023-05-07T11:03:11;8.60;;;7.75;;
60060;SDS011;45933;51.336;12.612;2023-05-07T11:05:36;7.00;;;6.30;;
60060;SDS011;45933;51.336;12.612;2023-05-07T11:08:02;7.03;;;6.43;;
60060;SDS011;45933;51.336;12.612;2023-05-07T11:10:48;7.35;;;6.32;;
60060;SDS011;45933;51.336;12.612;2023-05-07T11:16:19;7.80;;;7.00;;
60060;SDS011;45933;51.336;12.612;2023-05-07T11:18:49;7.35;;;6.60;;
60060;SDS011;45933;51.336;12.612;2023-05-07T11:24:01;6.03;;;5.43;;
60060;SDS011;45933;51.336;12.612;2023-05-07T11:26:28;5.60;;;5.10;;
60060;SDS011;45933;51.336;12.612;2023-05-07T11:29:09;6.40;;;5.80;;
60060;SDS011;45933;51.336;12.612;2023-05-07T11:31:36;8.27;;;5.65;;
60060;SDS011;45933;51.336;12.612;2023-05-07T11:34:02;7.50;;;6.40;;
60060;SDS011;45933;51.336;12.612;2023-05-07T11:36:31;6.75;;;5.80;;
60060;SDS011;45933;51.336;12.612;2023-05-07T11:38:57;6.38;;;5.72;;
60060;SDS011;45933;51.336;12.612;2023-05-07T11:41:22;6.45;;;5.85;;
60060;SDS011;45933;51.336;12.612;2023-05-07T11:43:58;8.25;;;6.38;;
60060;SDS011;45933;51.336;12.612;2023-05-07T11:46:24;6.90;;;6.20;;
60060;SDS011;45933;51.336;12.612;2023-05-07T11:48:50;6.82;;;6.03;;
60060;SDS011;45933;51.336;12.612;2023-05-07T11:54:36;6.28;;;5.75;;
60060;SDS011;45933;51.336;12.612;2023-05-07T11:57:02;6.45;;;5.65;;
60060;SDS011;45933;51.336;12.612;2023-05-07T11:59:41;6.70;;;6.00;;
60060;SDS011;45933;51.336;12.612;2023-05-07T12:02:09;8.20;;;5.70;;
60060;SDS011;45933;51.336;12.612;2023-05-07T12:04:51;6.43;;;5.80;;
60060;SDS011;45933;51.336;12.612;2023-05-07T12:07:17;6.45;;;5.55;;
60060;SDS011;45933;51.336;12.612;2023-05-07T12:09:45;6.38;;;5.78;;
60060;SDS011;45933;51.336;12.612;2023-05-07T12:12:12;7.43;;;5.60;;
60060;SDS011;45933;51.336;12.612;2023-05-07T12:14:40;6.20;;;5.60;;
60060;SDS011;45933;51.336;12.612;2023-05-07T12:17:07;6.88;;;5.63;;
60060;SDS011;45933;51.336;12.612;2023-05-07T12:19:34;7.30;;;5.38;;
60060;SDS011;45933;51.336;12.612;2023-05-07T12:22:01;6.53;;;5.80;;
60060;SDS011;45933;51.336;12.612;2023-05-07T12:24:28;5.72;;;4.75;;
60060;SDS011;45933;51.336;12.612;2023-05-07T12:26:53;7.35;;;5.05;;
60060;SDS011;45933;51.336;12.612;2023-05-07T12:29:22;4.72;;;4.28;;
60060;SDS011;45933;51.336;12.612;2023-05-07T12:31:48;5.20;;;4.70;;
60060;SDS011;45933;51.336;12.612;2023-05-07T12:34:14;5.80;;;5.30;;
60060;SDS011;45933;51.336;12.612;2023-05-07T12:36:40;5.25;;;4.75;;
60060;SDS011;45933;51.336;12.612;2023-05-07T12:39:08;5.50;;;5.00;;
60060;SDS011;45933;51.336;12.612;2023-05-07T12:44:23;5.38;;;4.88;;
60060;SDS011;45933;51.336;12.612;2023-05-07T12:46:49;8.43;;;5.13;;
60060;SDS011;45933;51.336;12.612;2023-05-07T12:49:15;7.25;;;5.00;;
60060;SDS011;45933;51.336;12.612;2023-05-07T12:51:40;5.22;;;4.72;;
60060;SDS011;45933;51.336;12.612;2023-05-07T12:54:06;4.93;;;4.53;;
60060;SDS011;45933;51.336;12.612;2023-05-07T12:56:31;6.97;;;4.80;;
60060;SDS011;45933;51.336;12.612;2023-05-07T12:58:57;4.88;;;4.38;;
60060;SDS011;45933;51.336;12.612;2023-05-07T13:01:28;5.10;;;4.60;;
60060;SDS011;45933;51.336;12.612;2023-05-07T13:03:54;4.43;;;4.03;;
60060;SDS011;45933;51.336;12.612;2023-05-07T13:06:20;5.10;;;4.60;;
60060;SDS011;45933;51.336;12.612;2023-05-07T13:08:45;5.82;;;4.45;;
60060;SDS011;45933;51.336;12.612;2023-05-07T13:11:11;5.05;;;4.55;;
60060;SDS011;45933;51.336;12.612;2023-05-07T13:13:37;6.15;;;4.47;;
60060;SDS011;45933;51.336;12.612;2023-05-07T13:16:05;5.28;;;3.83;;
60060;SDS011;45933;51.336;12.612;2023-05-07T13:18:31;5.07;;;3.80;;
60060;SDS011;45933;51.336;12.612;2023-05-07T13:20:57;5.13;;;4.38;;
60060;SDS011;45933;51.336;12.612;2023-05-07T13:23:23;4.10;;;3.70;;
60060;SDS011;45933;51.336;12.612;2023-05-07T13:25:48;3.67;;;3.38;;
60060;SDS011;45933;51.336;12.612;2023-05-07T13:28:15;3.63;;;3.33;;
60060;SDS011;45933;51.336;12.612;2023-05-07T13:30:41;3.70;;;3.33;;
60060;SDS011;45933;51.336;12.612;2023-05-07T13:33:06;5.78;;;3.63;;
60060;SDS011;45933;51.336;12.612;2023-05-07T13:35:32;4.90;;;3.70;;
60060;SDS011;45933;51.336;12.612;2023-05-07T13:37:57;3.85;;;3.45;;
60060;SDS011;45933;51.336;12.612;2023-05-07T13:40:23;3.22;;;2.92;;
60060;SDS011;45933;51.336;12.612;2023-05-07T13:42:48;4.03;;;3.20;;
60060;SDS011;45933;51.336;12.612;2023-05-07T13:45:15;3.45;;;3.13;;
60060;SDS011;45933;51.336;12.612;2023-05-07T13:47:41;3.88;;;2.95;;
60060;SDS011;45933;51.336;12.612;2023-05-07T13:50:07;3.42;;;3.10;;
60060;SDS011;45933;51.336;12.612;2023-05-07T13:52:34;3.88;;;2.97;;
60060;SDS011;45933;51.336;12.612;2023-05-07T13:54:59;3.25;;;2.30;;
60060;SDS011;45933;51.336;12.612;2023-05-07T13:57:24;2.72;;;2.53;;
60060;SDS011;45933;51.336;12.612;2023-05-07T13:59:50;5.40;;;3.25;;
60060;SDS011;45933;51.336;12.612;2023-05-07T14:02:15;3.65;;;2.95;;
60060;SDS011;45933;51.336;12.612;2023-05-07T14:04:40;3.13;;;2.83;;
60060;SDS011;45933;51.336;12.612;2023-05-07T14:07:06;2.60;;;2.40;;
60060;SDS011;45933;51.336;12.612;2023-05-07T14:09:31;3.22;;;2.58;;
60060;SDS011;45933;51.336;12.612;2023-05-07T14:11:57;2.72;;;2.47;;
60060;SDS011;45933;51.336;12.612;2023-05-07T14:14:22;2.53;;;2.30;;
60060;SDS011;45933;51.336;12.612;2023-05-07T14:16:47;2.60;;;2.40;;
60060;SDS011;45933;51.336;12.612;2023-05-07T14:19:12;2.80;;;2.50;;
60060;SDS011;45933;51.336;12.612;2023-05-07T14:21:38;3.47;;;3.17;;
60060;SDS011;45933;51.336;12.612;2023-05-07T14:24:03;6.70;;;5.90;;
60060;SDS011;45933;51.336;12.612;2023-05-07T14:26:31;5.55;;;5.05;;
60060;SDS011;45933;51.336;12.612;2023-05-07T14:28:56;4.53;;;4.03;;
60060;SDS011;45933;51.336;12.612;2023-05-07T14:31:23;4.63;;;3.85;;
60060;SDS011;45933;51.336;12.612;2023-05-07T14:33:49;5.18;;;4.30;;
60060;SDS011;45933;51.336;12.612;2023-05-07T14:36:15;4.07;;;3.70;;
60060;SDS011;45933;51.336;12.612;2023-05-07T14:38:41;4.30;;;3.17;;